Time;durP1;ratioP1;P1;durP2;ratioP2;P2;SDS_P1;SDS_P2;PMS_P1;PMS_P2;Temp;Humidity;BMP_temperature;BMP_pressure;BME280_temperature;BME280_humidity;BME280_pressure;Samples;Min_cycle;Max_cycle;Signal;HPM_P1;HPM_P2
2023/02/14 00:02:10;;;;;;;65.60;16.67;;;4.00;99.90;;;;;;5079043;28;20474;-64
2023/02/14 00:04:42;;;;;;;66.33;18.07;;;4.00;99.90;;;;;;5070733;28;20178;-64
2023/02/14 00:07:08;;;;;;;43.33;16.30;;;4.00;99.90;;;;;;5072259;28;20888;-65
2023/02/14 00:09:34;;;;;;;52.40;16.50;;;4.00;99.90;;;;;;5075343;28;20452;-65
2023/02/14 00:11:59;;;;;;;30.37;16.97;;;3.90;99.90;;;;;;5071774;28;20588;-65
2023/02/14 00:17:09;;;;;;;60.13;18.17;;;4.10;99.90;;;;;;5072830;28;20217;-64
2023/02/14 00:19:35;;;;;;;35.13;17.70;;;3.90;99.90;;;;;;5071346;28;20436;-65
2023/02/14 00:22:01;;;;;;;35.50;16.27;;;3.90;99.90;;;;;;5074007;28;20265;-64
2023/02/14 00:24:27;;;;;;;37.13;15.33;;;3.90;99.90;;;;;;5071419;28;20597;-65
2023/02/14 00:26:53;;;;;;;28.40;15.90;;;3.90;99.90;;;;;;5070428;28;20944;-64
2023/02/14 00:29:22;;;;;;;36.63;16.30;;;4.10;99.90;;;;;;5071947;28;20468;-65
2023/02/14 00:31:47;;;;;;;44.57;15.80;;;4.20;99.90;;;;;;5071428;28;20443;-64
2023/02/14 00:34:15;;;;;;;54.63;16.80;;;4.30;99.90;;;;;;5072964;28;20989;-66
2023/02/14 00:36:41;;;;;;;28.90;15.20;;;4.20;99.90;;;;;;5070404;28;20229;-65
2023/02/14 00:39:10;;;;;;;23.90;14.87;;;4.20;99.90;;;;;;5071693;28;20470;-65
2023/02/14 00:41:36;;;;;;;25.83;15.20;;;4.20;99.90;;;;;;5070865;28;20520;-65
2023/02/14 00:44:01;;;;;;;48.70;15.97;;;4.20;99.90;;;;;;5072826;28;20535;-65
2023/02/14 00:46:27;;;;;;;33.03;14.63;;;4.20;99.90;;;;;;5070649;28;20211;-65
2023/02/14 00:48:53;;;;;;;49.40;15.47;;;4.20;99.90;;;;;;5072191;28;20255;-65
2023/02/14 00:51:19;;;;;;;31.20;15.97;;;4.20;99.90;;;;;;5071080;28;20428;-65
2023/02/14 00:53:47;;;;;;;31.07;16.30;;;4.20;99.90;;;;;;5074011;28;20197;-65
2023/02/14 00:56:14;;;;;;;29.70;15.00;;;4.10;99.90;;;;;;5073598;28;20549;-64
2023/02/14 00:58:40;;;;;;;33.60;15.33;;;4.10;99.90;;;;;;5065196;28;20499;-65
2023/02/14 01:01:06;;;;;;;27.37;14.80;;;4.10;99.90;;;;;;5071037;28;20450;-64
2023/02/14 01:03:32;;;;;;;23.40;14.47;;;4.10;99.90;;;;;;5071858;28;20494;-65
2023/02/14 01:05:58;;;;;;;22.73;14.57;;;4.10;99.90;;;;;;5069892;28;20583;-65
2023/02/14 01:08:24;;;;;;;24.73;15.30;;;4.20;99.90;;;;;;5070224;28;20429;-65
2023/02/14 01:10:50;;;;;;;38.97;13.90;;;4.20;99.90;;;;;;5075421;28;20216;-65
2023/02/14 01:13:16;;;;;;;26.60;14.77;;;4.20;99.90;;;;;;5057474;28;20452;-65
2023/02/14 01:15:45;;;;;;;32.73;14.33;;;4.20;99.90;;;;;;5074219;28;20464;-65
2023/02/14 01:18:11;;;;;;;26.77;14.40;;;4.10;99.90;;;;;;5069942;28;20472;-65
2023/02/14 01:20:37;;;;;;;28.67;14.57;;;4.20;99.90;;;;;;5071680;28;20427;-65
2023/02/14 01:23:02;;;;;;;22.20;14.33;;;4.20;99.90;;;;;;5072287;28;20937;-64
2023/02/14 01:25:29;;;;;;;26.43;14.40;;;4.30;99.90;;;;;;5071939;28;20182;-65
2023/02/14 01:27:54;;;;;;;28.80;13.70;;;4.40;99.90;;;;;;5075834;28;20251;-65
2023/02/14 01:30:20;;;;;;;22.37;13.67;;;4.30;99.90;;;;;;5068551;28;20416;-65
2023/02/14 01:32:46;;;;;;;43.00;15.53;;;4.20;99.90;;;;;;5071766;28;20178;-64
2023/02/14 01:35:11;;;;;;;21.33;13.87;;;4.20;99.90;;;;;;5070706;28;20676;-65
2023/02/14 01:37:37;;;;;;;23.77;13.90;;;4.20;99.90;;;;;;5072353;28;20561;-64
2023/02/14 01:40:07;;;;;;;22.40;13.53;;;4.20;99.90;;;;;;5072595;28;20181;-65
2023/02/14 01:42:34;;;;;;;23.77;13.10;;;4.20;99.90;;;;;;5072058;28;20200;-65
2023/02/14 01:45:04;;;;;;;19.93;14.40;;;4.30;99.90;;;;;;5072234;28;20998;-65
2023/02/14 01:47:33;;;;;;;20.40;14.03;;;4.30;99.90;;;;;;5077083;28;20570;-65
2023/02/14 01:50:15;;;;;;;30.73;13.80;;;4.20;99.90;;;;;;5072532;28;20443;-65
2023/02/14 01:52:45;;;;;;;21.30;14.23;;;4.10;99.90;;;;;;5075467;28;20523;-65
2023/02/14 01:55:17;;;;;;;26.53;13.50;;;4.20;99.90;;;;;;5072645;28;20468;-65
2023/02/14 01:57:48;;;;;;;20.10;12.90;;;4.00;99.90;;;;;;5077515;28;20456;-65
2023/02/14 02:03:03;;;;;;;23.33;13.63;;;4.00;99.90;;;;;;5071467;28;20432;-65
2023/02/14 02:05:28;;;;;;;51.23;13.90;;;4.10;99.90;;;;;;5075722;28;20448;-65
2023/02/14 02:07:57;;;;;;;22.27;13.63;;;4.10;99.90;;;;;;5073386;28;20574;-65
2023/02/14 02:10:23;;;;;;;25.17;14.30;;;3.80;99.90;;;;;;5073619;28;20517;-65
2023/02/14 02:12:51;;;;;;;32.70;13.40;;;3.90;99.90;;;;;;5069132;28;20822;-65
2023/02/14 02:15:18;;;;;;;23.10;12.57;;;3.90;99.90;;;;;;5076934;28;20498;-64
2023/02/14 02:18:21;;;;;;;23.17;13.30;;;3.90;99.90;;;;;;5080668;28;20539;-64
2023/02/14 02:21:39;;;;;;;19.57;12.57;;;4.00;99.90;;;;;;5072210;28;20537;-65
2023/02/14 02:24:32;;;;;;;19.77;12.60;;;4.10;99.90;;;;;;4987316;28;20460;-65
2023/02/14 02:27:16;;;;;;;21.83;12.77;;;4.20;99.90;;;;;;5071831;28;20473;-65
2023/02/14 02:30:27;;;;;;;19.90;13.20;;;4.10;99.90;;;;;;5074040;28;20428;-65
2023/02/14 02:33:02;;;;;;;22.53;15.93;;;4.10;99.90;;;;;;5072202;28;20523;-65
2023/02/14 02:35:54;;;;;;;19.20;12.80;;;4.10;99.90;;;;;;5075540;28;20434;-65
2023/02/14 02:38:46;;;;;;;20.60;13.50;;;3.90;99.90;;;;;;5071076;28;20439;-64
2023/02/14 02:41:29;;;;;;;23.43;14.60;;;4.00;99.90;;;;;;5029260;28;21198;-65
2023/02/14 02:44:15;;;;;;;19.30;12.73;;;4.20;99.90;;;;;;5075938;28;20447;-65
2023/02/14 02:47:22;;;;;;;19.27;13.67;;;4.10;99.90;;;;;;5072604;28;20460;-65
2023/02/14 02:53:02;;;;;;;19.43;12.93;;;3.90;99.90;;;;;;5071877;28;20529;-65
2023/02/14 02:58:50;;;;;;;22.43;14.70;;;3.80;99.90;;;;;;5076896;28;20443;-65
2023/02/14 03:01:29;;;;;;;23.47;14.43;;;3.90;99.90;;;;;;5064649;28;20895;-65
2023/02/14 03:06:53;;;;;;;27.53;15.83;;;4.00;99.90;;;;;;5072531;28;20990;-65
2023/02/14 03:09:18;;;;;;;27.77;15.17;;;4.10;99.90;;;;;;5075144;28;20440;-65
2023/02/14 03:12:19;;;;;;;24.57;17.00;;;4.10;99.90;;;;;;5072707;28;20475;-66
2023/02/14 03:15:31;;;;;;;25.40;15.20;;;4.20;99.90;;;;;;5076675;28;20202;-64
2023/02/14 03:21:09;;;;;;;28.30;16.57;;;4.20;99.90;;;;;;5076858;28;21206;-64
2023/02/14 03:23:44;;;;;;;23.67;13.33;;;4.30;99.90;;;;;;5071412;28;20486;-64
2023/02/14 03:26:15;;;;;;;23.20;14.10;;;4.30;99.90;;;;;;5078106;28;20455;-65
2023/02/14 03:29:07;;;;;;;20.13;12.80;;;4.30;99.90;;;;;;5074540;28;20893;-65
2023/02/14 03:31:42;;;;;;;21.27;14.07;;;4.20;99.90;;;;;;5074207;28;20433;-64
2023/02/14 03:34:20;;;;;;;24.30;14.50;;;4.30;99.90;;;;;;5076665;28;20451;-65
2023/02/14 03:37:17;;;;;;;24.67;14.13;;;4.30;99.90;;;;;;5078502;28;20528;-65
2023/02/14 03:39:49;;;;;;;26.20;15.03;;;4.40;99.90;;;;;;5052148;28;20468;-65
2023/02/14 03:42:20;;;;;;;26.73;15.80;;;4.40;99.90;;;;;;5074446;28;20413;-64
2023/02/14 03:44:48;;;;;;;26.10;15.23;;;4.40;99.90;;;;;;5073319;28;20402;-64
2023/02/14 03:47:17;;;;;;;23.87;15.27;;;4.40;99.90;;;;;;5072730;28;20463;-64
2023/02/14 03:49:49;;;;;;;21.17;14.70;;;4.50;99.90;;;;;;5073490;28;20447;-65
2023/02/14 03:52:17;;;;;;;22.30;13.60;;;4.50;99.90;;;;;;5078973;28;21188;-65
2023/02/14 03:54:45;;;;;;;25.07;14.93;;;4.50;99.90;;;;;;5059277;28;20449;-65
2023/02/14 03:57:19;;;;;;;24.43;15.20;;;4.50;99.90;;;;;;5075388;28;20578;-65
2023/02/14 03:59:46;;;;;;;25.23;15.57;;;4.50;99.90;;;;;;5075870;28;20936;-65
2023/02/14 04:02:23;;;;;;;19.40;13.70;;;4.50;99.90;;;;;;5071136;28;21505;-64
2023/02/14 04:04:51;;;;;;;18.10;12.60;;;4.50;99.90;;;;;;5076434;28;20855;-65
2023/02/14 04:07:20;;;;;;;20.97;14.10;;;4.50;99.90;;;;;;5059832;28;20973;-65
2023/02/14 04:09:46;;;;;;;21.27;13.50;;;4.50;99.90;;;;;;5073912;28;20537;-65
2023/02/14 04:12:13;;;;;;;24.03;15.00;;;4.40;99.90;;;;;;5071610;28;20500;-65
2023/02/14 04:14:38;;;;;;;19.37;13.07;;;4.40;99.90;;;;;;5074045;28;20956;-64
2023/02/14 04:19:49;;;;;;;24.20;14.40;;;4.30;99.90;;;;;;5071513;28;20192;-64
2023/02/14 04:22:14;;;;;;;22.57;14.07;;;4.30;99.90;;;;;;5071400;28;20449;-64
2023/02/14 04:24:40;;;;;;;21.30;13.80;;;4.30;99.90;;;;;;5070543;28;20293;-64
2023/02/14 04:27:11;;;;;;;21.83;12.93;;;4.20;99.90;;;;;;5071593;28;20244;-64
2023/02/14 04:29:39;;;;;;;28.83;14.80;;;4.10;99.90;;;;;;5068915;28;20185;-64
2023/02/14 04:32:07;;;;;;;22.53;13.93;;;4.20;99.90;;;;;;5071167;28;20478;-64
2023/02/14 04:34:33;;;;;;;22.40;13.27;;;4.20;99.90;;;;;;5067641;28;20462;-64
2023/02/14 04:36:58;;;;;;;21.23;13.50;;;4.10;99.90;;;;;;5073279;28;20562;-64
2023/02/14 04:39:24;;;;;;;22.10;13.63;;;4.10;99.90;;;;;;5075730;28;20667;-64
2023/02/14 04:41:50;;;;;;;20.73;13.37;;;4.10;99.90;;;;;;5056695;28;20240;-64
2023/02/14 04:44:15;;;;;;;22.90;13.43;;;4.10;99.90;;;;;;5068230;28;20187;-64
2023/02/14 04:46:41;;;;;;;21.73;12.83;;;4.10;99.90;;;;;;5067435;28;20202;-64
2023/02/14 04:49:06;;;;;;;26.03;14.80;;;4.10;99.90;;;;;;5070103;28;20229;-64
2023/02/14 04:51:32;;;;;;;20.90;13.10;;;4.10;99.90;;;;;;5073950;28;20190;-64
2023/02/14 04:53:57;;;;;;;18.03;13.00;;;4.10;99.90;;;;;;5071708;28;20190;-63
2023/02/14 04:56:24;;;;;;;22.93;13.90;;;4.10;99.90;;;;;;5073262;28;20292;-64
2023/02/14 04:58:50;;;;;;;22.03;14.00;;;4.00;99.90;;;;;;5056432;28;20267;-64
2023/02/14 05:01:16;;;;;;;21.73;14.80;;;3.90;99.90;;;;;;5069732;28;20527;-64
2023/02/14 05:03:41;;;;;;;18.53;13.53;;;4.00;99.90;;;;;;5069580;28;20663;-64
2023/02/14 05:06:07;;;;;;;22.13;15.20;;;4.00;99.90;;;;;;5072279;28;20312;-63
2023/02/14 05:08:32;;;;;;;18.87;13.23;;;3.90;99.90;;;;;;5069249;28;20682;-64
2023/02/14 05:10:58;;;;;;;16.30;12.27;;;3.90;99.90;;;;;;5058741;28;20190;-64
2023/02/14 05:13:23;;;;;;;19.50;13.30;;;3.90;99.90;;;;;;5069308;28;20182;-63
2023/02/14 05:15:49;;;;;;;18.80;13.57;;;3.90;99.90;;;;;;5076104;28;20202;-64
2023/02/14 05:18:14;;;;;;;21.70;12.77;;;3.90;99.90;;;;;;5069788;28;20181;-64
2023/02/14 05:20:40;;;;;;;19.13;13.20;;;3.80;99.90;;;;;;5075453;28;20682;-64
2023/02/14 05:23:12;;;;;;;20.33;13.57;;;3.80;99.90;;;;;;5072346;28;20745;-65
2023/02/14 05:25:40;;;;;;;20.83;13.63;;;3.80;99.90;;;;;;5070722;28;20822;-64
2023/02/14 05:28:06;;;;;;;25.27;14.70;;;3.80;99.90;;;;;;5054024;28;20637;-65
2023/02/14 05:30:32;;;;;;;20.83;13.60;;;3.70;99.90;;;;;;5077849;28;22102;-64
2023/02/14 05:32:57;;;;;;;21.03;13.37;;;3.80;99.90;;;;;;5072780;28;20186;-65
2023/02/14 05:35:23;;;;;;;22.37;13.97;;;3.80;99.90;;;;;;5074121;28;20237;-64
2023/02/14 05:37:49;;;;;;;17.53;13.07;;;3.80;99.90;;;;;;5072593;28;20226;-64
2023/02/14 05:40:15;;;;;;;21.93;14.67;;;3.80;99.90;;;;;;5075508;28;20735;-64
2023/02/14 05:42:41;;;;;;;26.10;14.77;;;3.80;99.90;;;;;;5073189;28;20245;-64
2023/02/14 05:45:07;;;;;;;20.73;13.47;;;3.70;99.90;;;;;;5070777;28;20444;-65
2023/02/14 05:47:33;;;;;;;22.53;14.27;;;3.80;99.90;;;;;;5071429;28;20510;-64
2023/02/14 05:49:59;;;;;;;20.87;14.20;;;3.70;99.90;;;;;;5056881;28;20443;-64
2023/02/14 05:52:25;;;;;;;22.73;14.90;;;3.70;99.90;;;;;;5077328;28;20433;-64
2023/02/14 05:54:50;;;;;;;23.03;13.90;;;3.70;99.90;;;;;;5071519;28;20194;-65
2023/02/14 05:57:16;;;;;;;24.87;15.40;;;3.60;99.90;;;;;;5072093;28;20206;-64
2023/02/14 05:59:42;;;;;;;24.93;14.80;;;3.60;99.90;;;;;;5075551;28;20551;-64
2023/02/14 06:02:07;;;;;;;26.63;16.60;;;3.60;99.90;;;;;;5077755;28;20708;-64
2023/02/14 06:04:33;;;;;;;27.20;15.93;;;3.60;99.90;;;;;;5071302;28;20191;-64
2023/02/14 06:06:58;;;;;;;27.63;16.23;;;3.60;99.90;;;;;;5072502;28;20214;-64
2023/02/14 06:09:24;;;;;;;29.80;16.83;;;3.60;99.90;;;;;;5077023;28;20179;-64
2023/02/14 06:11:50;;;;;;;25.73;16.17;;;3.60;99.90;;;;;;5074937;28;20375;-64
2023/02/14 06:14:15;;;;;;;27.00;17.37;;;3.60;99.90;;;;;;5077087;28;20179;-64
2023/02/14 06:16:41;;;;;;;25.93;16.27;;;3.60;99.90;;;;;;5070333;28;20657;-64
2023/02/14 06:19:06;;;;;;;25.63;15.87;;;3.60;99.90;;;;;;5075487;28;20671;-64
2023/02/14 06:21:33;;;;;;;27.50;16.97;;;3.60;99.90;;;;;;5058642;28;20239;-64
2023/02/14 06:23:59;;;;;;;26.40;16.87;;;3.60;99.90;;;;;;5075863;28;20220;-64
2023/02/14 06:26:26;;;;;;;26.67;15.87;;;3.50;99.90;;;;;;5075159;28;20965;-65
2023/02/14 06:28:57;;;;;;;27.93;17.00;;;3.50;99.90;;;;;;5074184;28;20186;-65
2023/02/14 06:31:24;;;;;;;24.13;15.13;;;3.50;99.90;;;;;;5074030;28;20436;-64
2023/02/14 06:33:50;;;;;;;26.80;15.90;;;3.50;99.90;;;;;;5078051;28;20519;-65
2023/02/14 06:36:16;;;;;;;27.73;16.30;;;3.50;99.90;;;;;;5060358;28;20474;-65
2023/02/14 06:38:41;;;;;;;27.80;16.53;;;3.50;99.90;;;;;;5074522;28;20436;-64
2023/02/14 06:41:09;;;;;;;26.63;17.07;;;3.50;99.90;;;;;;5077039;28;20179;-65
2023/02/14 06:43:36;;;;;;;26.40;15.90;;;3.50;99.90;;;;;;5077379;28;20577;-65
2023/02/14 06:46:02;;;;;;;25.43;17.23;;;3.60;99.90;;;;;;5075562;28;20469;-65
2023/02/14 06:48:27;;;;;;;31.20;17.67;;;3.60;99.90;;;;;;5060666;28;20440;-64
2023/02/14 06:50:53;;;;;;;32.37;18.57;;;3.60;99.90;;;;;;5073575;28;20437;-65
2023/02/14 06:53:19;;;;;;;36.80;18.63;;;3.60;99.90;;;;;;5078596;28;20193;-64
2023/02/14 06:55:45;;;;;;;30.67;17.87;;;3.60;99.90;;;;;;5072666;28;20516;-65
2023/02/14 06:58:11;;;;;;;29.27;16.50;;;3.60;99.90;;;;;;5077702;28;20435;-64
2023/02/14 07:00:36;;;;;;;29.13;17.20;;;3.60;99.90;;;;;;5071686;28;20452;-65
2023/02/14 07:03:02;;;;;;;27.60;16.50;;;3.60;99.90;;;;;;5076586;28;20867;-63
2023/02/14 07:05:28;;;;;;;30.20;18.13;;;3.70;99.90;;;;;;5069678;28;20773;-63
2023/02/14 07:07:56;;;;;;;27.87;18.53;;;3.60;99.90;;;;;;5066114;28;20245;-64
2023/02/14 07:10:22;;;;;;;34.33;18.43;;;3.60;99.90;;;;;;5054115;28;20189;-64
2023/02/14 07:12:47;;;;;;;30.13;18.57;;;3.60;99.90;;;;;;5069535;28;20445;-63
2023/02/14 07:15:13;;;;;;;32.80;18.10;;;3.70;99.90;;;;;;5070418;28;20296;-63
2023/02/14 07:17:39;;;;;;;28.20;17.23;;;3.70;99.90;;;;;;5059019;28;20244;-63
2023/02/14 07:20:06;;;;;;;30.27;17.33;;;3.80;99.90;;;;;;5074383;28;20493;-63
2023/02/14 07:22:33;;;;;;;31.03;18.10;;;3.80;99.90;;;;;;5067250;28;20183;-63
2023/02/14 07:24:58;;;;;;;30.03;17.53;;;3.80;99.90;;;;;;5071991;28;20436;-63
2023/02/14 07:27:24;;;;;;;30.67;18.50;;;3.80;99.90;;;;;;5058119;28;20466;-64
2023/02/14 07:29:50;;;;;;;33.40;19.20;;;3.80;99.90;;;;;;5066705;28;20199;-64
2023/02/14 07:32:16;;;;;;;28.60;18.43;;;3.80;99.90;;;;;;5074015;28;20694;-64
2023/02/14 07:34:41;;;;;;;34.30;17.60;;;3.90;99.90;;;;;;5070527;28;20460;-64
2023/02/14 07:37:07;;;;;;;35.10;19.47;;;3.90;99.90;;;;;;5056957;28;20213;-64
2023/02/14 07:39:33;;;;;;;32.30;19.30;;;3.90;99.90;;;;;;5073816;28;20187;-64
2023/02/14 07:41:59;;;;;;;32.80;18.90;;;4.00;99.90;;;;;;5071790;28;20361;-64
2023/02/14 07:44:24;;;;;;;26.90;17.03;;;4.00;99.90;;;;;;5071852;28;20428;-64
2023/02/14 07:46:50;;;;;;;31.30;18.57;;;4.00;99.90;;;;;;5072248;28;20244;-64
2023/02/14 07:49:16;;;;;;;30.57;18.57;;;4.00;99.90;;;;;;5073203;28;20190;-64
2023/02/14 07:51:41;;;;;;;33.50;19.70;;;4.00;99.90;;;;;;5075791;28;20897;-64
2023/02/14 07:54:07;;;;;;;33.97;18.83;;;4.10;99.90;;;;;;5077647;28;20561;-64
2023/02/14 07:56:32;;;;;;;32.27;18.13;;;4.10;99.90;;;;;;5071106;28;20257;-64
2023/02/14 07:58:58;;;;;;;32.20;19.07;;;4.10;99.90;;;;;;5075351;28;20619;-64
2023/02/14 08:01:24;;;;;;;31.93;18.77;;;4.10;99.90;;;;;;5077758;28;20189;-64
2023/02/14 08:03:50;;;;;;;33.63;20.13;;;4.00;99.90;;;;;;5071493;28;20175;-64
2023/02/14 08:06:19;;;;;;;30.20;19.10;;;4.00;99.90;;;;;;5072900;28;20240;-63
2023/02/14 08:08:46;;;;;;;31.17;19.23;;;4.10;99.90;;;;;;5069983;28;20448;-63
2023/02/14 08:12:57;;;;;;;31.90;18.47;;;4.10;99.90;;;;;;5074883;28;20429;-63
2023/02/14 08:13:57;;;;;;;33.03;18.47;;;4.10;99.90;;;;;;5073533;28;20431;-64
2023/02/14 08:16:23;;;;;;;33.87;20.03;;;4.10;99.90;;;;;;5076346;28;21332;-64
2023/02/14 08:18:48;;;;;;;32.60;18.03;;;4.20;99.90;;;;;;5072625;28;20186;-64
2023/02/14 08:21:16;;;;;;;32.20;19.20;;;4.10;99.90;;;;;;5078583;28;20190;-64
2023/02/14 08:23:42;;;;;;;37.27;19.40;;;4.20;99.90;;;;;;5075222;28;20278;-64
2023/02/14 08:26:08;;;;;;;33.57;19.07;;;4.20;99.90;;;;;;5074182;28;20461;-63
2023/02/14 08:28:34;;;;;;;35.53;19.67;;;4.20;99.90;;;;;;5063228;28;20436;-64
2023/02/14 08:31:00;;;;;;;35.40;20.07;;;4.30;99.90;;;;;;5073174;28;21666;-65
2023/02/14 08:33:26;;;;;;;35.33;20.33;;;4.40;99.90;;;;;;5055314;28;20433;-63
2023/02/14 08:35:51;;;;;;;32.07;19.93;;;4.40;99.90;;;;;;5057648;28;20821;-63
2023/02/14 08:38:17;;;;;;;39.03;19.93;;;4.30;99.90;;;;;;5073135;28;20179;-63
2023/02/14 08:40:43;;;;;;;32.27;19.47;;;4.30;99.90;;;;;;5070968;28;20183;-64
2023/02/14 08:43:09;;;;;;;38.40;21.00;;;4.50;99.90;;;;;;5074647;28;20635;-64
2023/02/14 08:45:35;;;;;;;33.93;20.87;;;4.60;99.90;;;;;;5074238;28;20991;-63
2023/02/14 08:48:05;;;;;;;32.57;20.60;;;4.70;99.90;;;;;;5072888;28;20432;-64
2023/02/14 08:50:32;;;;;;;35.47;20.17;;;4.80;99.90;;;;;;5075509;28;20179;-63
2023/02/14 08:52:57;;;;;;;32.70;19.80;;;4.80;99.90;;;;;;5074517;28;20807;-64
2023/02/14 08:55:23;;;;;;;32.17;21.03;;;4.90;99.90;;;;;;5074899;28;20451;-64
2023/02/14 08:57:49;;;;;;;33.50;18.33;;;4.90;99.90;;;;;;5075735;28;20486;-64
2023/02/14 09:00:15;;;;;;;29.20;18.00;;;5.00;99.90;;;;;;5074057;28;20190;-64
2023/02/14 09:02:40;;;;;;;35.70;20.87;;;5.00;99.90;;;;;;5069320;28;20274;-64
2023/02/14 09:05:08;;;;;;;31.40;19.77;;;5.00;99.90;;;;;;5060130;28;20867;-63
2023/02/14 09:07:34;;;;;;;34.23;20.23;;;5.10;99.90;;;;;;5068535;28;20194;-63
2023/02/14 09:09:59;;;;;;;32.47;18.40;;;5.20;99.90;;;;;;5056902;28;20463;-64
2023/02/14 09:12:25;;;;;;;27.67;17.10;;;5.20;99.90;;;;;;5075840;28;20475;-64
2023/02/14 09:14:51;;;;;;;30.80;18.43;;;5.10;99.90;;;;;;5074255;28;20187;-64
2023/02/14 09:17:16;;;;;;;29.53;17.83;;;4.80;99.90;;;;;;5074393;28;20792;-65
2023/02/14 09:19:42;;;;;;;37.40;18.70;;;4.70;99.90;;;;;;5073707;28;20186;-63
2023/02/14 09:22:09;;;;;;;42.40;21.90;;;4.70;99.90;;;;;;5073382;28;20192;-64
2023/02/14 09:24:37;;;;;;;34.63;19.97;;;4.90;99.90;;;;;;5074693;28;20447;-64
2023/02/14 09:27:03;;;;;;;36.20;19.10;;;4.80;99.90;;;;;;5057413;28;20553;-63
2023/02/14 09:29:29;;;;;;;31.83;17.67;;;4.80;99.90;;;;;;5078023;28;20420;-64
2023/02/14 09:31:56;;;;;;;31.77;20.10;;;4.80;99.90;;;;;;5073114;28;20437;-64
2023/02/14 09:37:09;;;;;;;29.60;19.50;;;4.90;99.90;;;;;;5072420;28;20478;-64
2023/02/14 09:39:36;;;;;;;30.20;20.20;;;5.00;99.90;;;;;;5075717;28;20416;-64
2023/02/14 09:42:23;;;;;;;33.43;20.47;;;5.00;99.90;;;;;;5057841;28;20479;-64
2023/02/14 09:44:55;;;;;;;37.97;19.53;;;5.00;99.90;;;;;;5071488;28;20475;-63
2023/02/14 09:47:30;;;;;;;36.80;20.50;;;5.10;99.90;;;;;;5071561;28;20486;-63
2023/02/14 09:49:57;;;;;;;32.20;20.37;;;5.20;99.90;;;;;;5072125;28;20971;-63
2023/02/14 09:52:28;;;;;;;37.23;19.17;;;5.20;99.90;;;;;;5070565;28;20448;-63
2023/02/14 09:54:57;;;;;;;26.60;18.37;;;5.30;99.90;;;;;;5075222;28;21613;-65
2023/02/14 09:57:55;;;;;;;37.57;22.73;;;5.30;99.90;;;;;;5075701;28;20473;-64
2023/02/14 10:00:41;;;;;;;30.93;18.43;;;5.30;99.90;;;;;;5072046;28;20502;-63
2023/02/14 10:03:39;;;;;;;36.00;20.40;;;5.30;99.90;;;;;;5070336;28;20428;-62
2023/02/14 10:06:39;;;;;;;31.70;19.40;;;5.30;99.90;;;;;;5073770;28;20472;-62
2023/02/14 10:09:10;;;;;;;31.83;19.20;;;5.40;99.90;;;;;;5071950;28;20437;-62
2023/02/14 10:11:37;;;;;;;28.70;18.30;;;5.40;99.90;;;;;;5078890;28;20463;-63
2023/02/14 10:14:16;;;;;;;34.00;20.20;;;5.60;99.90;;;;;;5060429;28;20489;-64
2023/02/14 10:16:44;;;;;;;33.00;20.17;;;5.60;99.90;;;;;;5071410;28;20815;-64
2023/02/14 10:19:27;;;;;;;31.80;20.00;;;5.70;99.90;;;;;;5070660;28;20963;-63
2023/02/14 10:22:00;;;;;;;33.00;20.70;;;5.70;99.90;;;;;;5074807;28;20448;-63
2023/02/14 10:24:27;;;;;;;34.60;21.03;;;5.80;99.90;;;;;;5072356;28;20907;-63
2023/02/14 10:27:02;;;;;;;33.53;19.80;;;5.80;99.90;;;;;;5075809;28;20459;-63
2023/02/14 10:29:27;;;;;;;29.60;19.73;;;5.90;99.90;;;;;;5078284;28;20440;-64
2023/02/14 10:32:01;;;;;;;31.50;18.13;;;5.90;99.90;;;;;;5077144;28;20849;-64
2023/02/14 10:34:45;;;;;;;32.63;20.60;;;6.00;99.90;;;;;;5074848;28;20210;-64
2023/02/14 10:37:29;;;;;;;31.80;20.50;;;6.00;99.90;;;;;;5077983;28;21134;-64
2023/02/14 10:40:08;;;;;;;30.17;21.10;;;5.90;99.90;;;;;;5072304;28;20455;-65
2023/02/14 10:42:44;;;;;;;30.27;19.80;;;5.90;99.90;;;;;;5079392;28;20420;-66
2023/02/14 10:45:17;;;;;;;33.00;21.23;;;5.90;99.90;;;;;;5074000;28;20893;-66
2023/02/14 10:47:51;;;;;;;34.23;19.97;;;6.00;99.90;;;;;;5074360;28;20865;-66
2023/02/14 10:50:40;;;;;;;34.10;21.60;;;5.90;99.90;;;;;;5072772;28;20452;-66
2023/02/14 10:53:14;;;;;;;33.10;20.50;;;6.00;99.90;;;;;;5074078;28;20526;-65
2023/02/14 10:55:42;;;;;;;30.97;20.27;;;6.10;99.90;;;;;;5076381;28;20433;-65
2023/02/14 10:58:13;;;;;;;33.33;21.80;;;6.20;99.90;;;;;;5077011;28;20444;-64
2023/02/14 11:00:54;;;;;;;35.90;21.93;;;6.20;99.90;;;;;;5072178;28;20792;-65
2023/02/14 11:03:21;;;;;;;40.43;21.97;;;6.30;99.90;;;;;;5076246;28;20811;-65
2023/02/14 11:05:48;;;;;;;32.33;21.30;;;6.30;99.90;;;;;;5073081;28;20949;-64
2023/02/14 11:08:28;;;;;;;35.50;22.43;;;6.40;99.90;;;;;;5076922;28;21156;-64
2023/02/14 11:11:17;;;;;;;34.10;19.77;;;6.50;99.90;;;;;;5073754;28;20447;-66
2023/02/14 11:13:43;;;;;;;31.30;19.93;;;6.50;99.90;;;;;;5070629;28;20428;-63
2023/02/14 11:16:12;;;;;;;32.77;21.27;;;6.60;99.90;;;;;;5060836;28;20494;-63
2023/02/14 11:18:39;;;;;;;33.10;22.00;;;6.60;99.90;;;;;;5073066;28;20262;-63
2023/02/14 11:21:11;;;;;;;33.57;21.10;;;6.70;99.90;;;;;;5059615;28;20960;-63
2023/02/14 11:23:42;;;;;;;33.83;21.47;;;6.70;99.90;;;;;;5068407;28;20436;-65
2023/02/14 11:26:29;;;;;;;35.43;22.90;;;6.70;99.90;;;;;;5076518;28;20531;-64
2023/02/14 11:29:01;;;;;;;39.03;22.80;;;6.70;99.90;;;;;;5071297;28;20424;-66
2023/02/14 11:31:32;;;;;;;35.97;20.80;;;6.70;99.90;;;;;;5073217;28;20448;-65
2023/02/14 11:33:59;;;;;;;32.40;19.90;;;6.80;99.90;;;;;;5072729;28;20422;-65
2023/02/14 11:36:26;;;;;;;38.37;22.70;;;6.90;99.90;;;;;;5069370;28;20981;-65
2023/02/14 11:39:25;;;;;;;31.00;20.43;;;7.00;99.90;;;;;;5069042;28;20437;-65
2023/02/14 11:41:53;;;;;;;30.90;20.73;;;7.10;99.90;;;;;;5064570;28;20441;-64
2023/02/14 11:44:24;;;;;;;28.53;19.30;;;7.20;99.90;;;;;;5071260;28;20466;-64
2023/02/14 11:46:51;;;;;;;33.00;19.50;;;7.20;99.90;;;;;;5067825;28;20881;-65
2023/02/14 11:49:27;;;;;;;37.63;21.53;;;7.30;99.90;;;;;;5072137;28;20471;-65
2023/02/14 11:51:53;;;;;;;31.77;20.30;;;7.40;99.90;;;;;;5075789;28;20428;-64
2023/02/14 11:54:34;;;;;;;31.47;21.80;;;7.40;99.90;;;;;;5072369;28;20420;-65
2023/02/14 11:57:16;;;;;;;31.30;20.20;;;7.50;99.90;;;;;;5074625;28;20472;-64
2023/02/14 11:59:49;;;;;;;31.50;20.83;;;7.60;99.90;;;;;;5074253;28;20432;-65
2023/02/14 12:02:40;;;;;;;28.90;20.33;;;7.70;99.90;;;;;;5079853;28;20413;-64
2023/02/14 12:05:18;;;;;;;33.63;19.77;;;7.70;99.90;;;;;;5075020;28;20536;-64
2023/02/14 12:07:46;;;;;;;32.73;21.27;;;7.80;99.90;;;;;;5075928;28;20460;-66
2023/02/14 12:10:14;;;;;;;30.73;20.00;;;7.90;99.90;;;;;;5073415;28;20425;-65
2023/02/14 12:12:54;;;;;;;28.23;18.47;;;8.00;99.90;;;;;;5073810;28;20424;-64
2023/02/14 12:15:27;;;;;;;29.20;19.87;;;8.10;99.90;;;;;;5076023;28;20460;-65
2023/02/14 12:18:20;;;;;;;31.03;19.30;;;8.80;99.90;;;;;;5055408;28;20820;-66
2023/02/14 12:21:14;;;;;;;28.97;18.80;;;9.30;99.90;;;;;;5068785;28;20455;-65
2023/02/14 12:24:10;;;;;;;28.77;19.40;;;9.90;99.90;;;;;;5071387;28;20562;-66
2023/02/14 12:26:45;;;;;;;29.97;20.37;;;10.00;99.90;;;;;;5073020;28;20459;-66
2023/02/14 12:29:29;;;;;;;30.10;20.97;;;10.10;99.90;;;;;;5069143;28;20503;-66
2023/02/14 12:32:00;;;;;;;29.27;20.43;;;9.90;99.90;;;;;;5073422;28;20427;-67
2023/02/14 12:34:26;;;;;;;33.90;22.63;;;9.80;99.90;;;;;;5076220;28;20467;-66
2023/02/14 12:37:14;;;;;;;27.30;20.10;;;9.70;99.90;;;;;;5058003;28;20473;-66
2023/02/14 12:40:16;;;;;;;31.30;20.70;;;9.70;99.90;;;;;;5052408;28;20647;-65
2023/02/14 12:42:57;;;;;;;31.50;20.87;;;9.60;99.90;;;;;;5074899;28;20416;-66
2023/02/14 12:45:28;;;;;;;29.30;20.67;;;9.40;99.90;;;;;;5069232;28;20428;-66
2023/02/14 12:47:53;;;;;;;31.37;21.17;;;9.40;99.90;;;;;;5070601;28;20452;-66
2023/02/14 12:50:32;;;;;;;27.93;20.23;;;9.20;99.90;;;;;;5077425;28;20552;-66
2023/02/14 12:53:26;;;;;;;30.93;20.17;;;9.30;99.90;;;;;;5069046;28;20248;-66
2023/02/14 12:56:01;;;;;;;32.73;21.63;;;9.20;99.90;;;;;;5072138;28;20824;-65
2023/02/14 12:58:43;;;;;;;30.87;20.80;;;9.30;99.90;;;;;;5069709;28;20433;-65
2023/02/14 13:01:34;;;;;;;27.00;20.17;;;9.50;99.90;;;;;;5057922;28;20446;-65
2023/02/14 13:04:43;;;;;;;32.20;21.17;;;9.60;99.90;;;;;;5071937;28;20428;-64
2023/02/14 13:07:41;;;;;;;28.33;20.50;;;9.90;99.90;;;;;;5075659;28;20493;-65
2023/02/14 13:11:06;;;;;;;31.30;21.37;;;10.20;99.90;;;;;;5065203;28;20451;-65
2023/02/14 13:14:03;;;;;;;29.63;20.17;;;10.10;99.90;;;;;;5016239;28;20598;-66
2023/02/14 13:16:51;;;;;;;28.37;19.87;;;10.30;99.90;;;;;;5073303;28;20882;-64
2023/02/14 13:19:25;;;;;;;29.00;19.57;;;10.40;99.90;;;;;;5074014;28;20485;-64
2023/02/14 13:21:52;;;;;;;28.73;19.77;;;10.50;99.90;;;;;;5055821;28;20860;-64